createdAt,value
2023-06-11T00:01:43.920Z,6.97
2023-06-11T00:04:14.559Z,6.57
2023-06-11T00:06:42.986Z,3.38
2023-06-11T00:09:12.659Z,5.15
2023-06-11T00:11:43.172Z,4.10
2023-06-11T00:14:12.036Z,6.03
2023-06-11T00:16:42.462Z,7.85
2023-06-11T00:19:10.962Z,4.70
2023-06-11T00:21:42.148Z,5.28
2023-06-11T00:24:10.650Z,5.75
2023-06-11T00:26:41.446Z,5.47
2023-06-11T00:29:10.011Z,4.32
2023-06-11T00:31:38.494Z,6.40
2023-06-11T00:34:06.927Z,5.53
2023-06-11T00:36:36.595Z,4.35
2023-06-11T00:39:06.350Z,5.18
2023-06-11T00:41:35.791Z,4.15
2023-06-11T00:44:07.436Z,4.18
2023-06-11T00:46:39.071Z,4.60
2023-06-11T00:49:07.465Z,3.47
2023-06-11T00:51:36.428Z,5.13
2023-06-11T00:54:04.736Z,6.07
2023-06-11T00:56:34.414Z,4.90
2023-06-11T00:59:02.710Z,6.10
2023-06-11T01:01:36.765Z,5.75
2023-06-11T01:04:08.832Z,4.00
2023-06-11T01:06:38.006Z,4.32
2023-06-11T01:09:06.783Z,6.28
2023-06-11T01:11:36.577Z,6.35
2023-06-11T01:14:05.404Z,3.70
2023-06-11T01:16:38.224Z,4.72
2023-06-11T01:19:12.208Z,4.28
2023-06-11T01:21:44.283Z,4.68
2023-06-11T01:24:22.385Z,5.25
2023-06-11T01:26:56.217Z,6.60
2023-06-11T01:29:27.663Z,4.75
2023-06-11T01:31:56.683Z,4.75
2023-06-11T01:34:26.449Z,4.82
2023-06-11T01:36:55.625Z,4.38
2023-06-11T01:39:23.970Z,5.53
2023-06-11T01:41:52.349Z,4.85
2023-06-11T01:44:21.483Z,5.32
2023-06-11T01:46:51.270Z,3.72
2023-06-11T01:49:19.934Z,3.45
2023-06-11T01:51:48.279Z,5.05
2023-06-11T01:54:16.674Z,4.25
2023-06-11T01:56:45.308Z,4.53
2023-06-11T01:59:14.570Z,5.82
2023-06-11T02:01:42.984Z,6.50
2023-06-11T02:04:12.810Z,5.18
2023-06-11T02:06:41.501Z,3.58
2023-06-11T02:09:09.859Z,5.00
2023-06-11T02:11:38.197Z,5.13
2023-06-11T02:14:06.614Z,6.95
2023-06-11T02:16:34.928Z,5.95
2023-06-11T02:19:03.291Z,5.30
2023-06-11T02:21:33.004Z,7.80
2023-06-11T02:24:01.747Z,4.82
2023-06-11T02:26:30.138Z,6.97
2023-06-11T02:28:58.467Z,5.78
2023-06-11T02:31:26.945Z,5.25
2023-06-11T02:33:55.399Z,4.53
2023-06-11T02:36:24.437Z,6.13
2023-06-11T02:38:54.151Z,5.47
2023-06-11T02:41:22.482Z,5.55
2023-06-11T02:43:50.841Z,6.78
2023-06-11T02:46:19.242Z,6.38
2023-06-11T02:48:47.593Z,5.75
2023-06-11T02:51:15.960Z,5.07
2023-06-11T02:53:45.261Z,5.90
2023-06-11T02:56:14.971Z,5.20
2023-06-11T02:58:43.282Z,5.97
2023-06-11T03:01:11.628Z,5.13
2023-06-11T03:03:39.999Z,6.82
2023-06-11T03:06:08.389Z,6.15
2023-06-11T03:08:36.738Z,5.10
2023-06-11T03:11:05.090Z,5.90
2023-06-11T03:13:34.796Z,5.28
2023-06-11T03:16:03.191Z,5.45
2023-06-11T03:18:31.560Z,6.32
2023-06-11T03:20:59.884Z,4.95
2023-06-11T03:23:28.203Z,5.00
2023-06-11T03:25:56.518Z,6.95
2023-06-11T03:28:24.816Z,7.45
2023-06-11T03:30:54.522Z,6.72
2023-06-11T03:33:22.909Z,7.90
2023-06-11T03:35:51.248Z,6.75
2023-06-11T03:38:19.584Z,6.15
2023-06-11T03:40:47.953Z,8.75
2023-06-11T03:43:16.286Z,5.95
2023-06-11T03:45:44.615Z,5.60
2023-06-11T03:48:14.256Z,6.13
2023-06-11T03:50:42.601Z,5.65
2023-06-11T03:53:10.886Z,6.03
2023-06-11T03:55:39.219Z,5.10
2023-06-11T03:58:07.618Z,5.78
2023-06-11T04:00:35.967Z,5.57
2023-06-11T04:03:04.419Z,5.80
2023-06-11T04:05:38.603Z,5.85
2023-06-11T04:08:07.094Z,5.27
2023-06-11T04:10:35.549Z,11.00
2023-06-11T04:13:03.913Z,6.60
2023-06-11T04:15:32.526Z,5.45
2023-06-11T04:18:00.996Z,5.82
2023-06-11T04:20:29.341Z,6.93
2023-06-11T04:22:59.176Z,8.00
2023-06-11T04:25:29.781Z,6.40
2023-06-11T04:27:58.631Z,6.40
2023-06-11T04:30:28.073Z,6.07
2023-06-11T04:32:57.587Z,4.65
2023-06-11T04:35:25.952Z,7.72
2023-06-11T04:37:54.308Z,6.53
2023-06-11T04:40:26.549Z,4.30
2023-06-11T04:42:54.876Z,7.20
2023-06-11T04:45:23.307Z,6.50
2023-06-11T04:47:52.430Z,8.40
2023-06-11T04:50:22.759Z,6.45
2023-06-11T04:52:52.933Z,6.18
2023-06-11T04:55:26.254Z,5.90
2023-06-11T04:57:56.620Z,7.03
2023-06-11T05:00:25.040Z,7.43
2023-06-11T05:02:53.490Z,6.90
2023-06-11T05:05:21.901Z,8.68
2023-06-11T05:07:50.285Z,14.32
2023-06-11T05:10:19.254Z,7.43
2023-06-11T05:12:47.603Z,11.30
2023-06-11T05:15:17.314Z,7.25
2023-06-11T05:17:47.159Z,5.72
2023-06-11T05:20:15.585Z,8.05
2023-06-11T05:22:43.956Z,10.52
2023-06-11T05:25:16.180Z,9.20
2023-06-11T05:27:44.512Z,7.95
2023-06-11T05:30:13.135Z,10.70
2023-06-11T05:32:45.007Z,7.72
2023-06-11T05:35:13.592Z,7.75
2023-06-11T05:37:42.112Z,6.07
2023-06-11T05:40:12.246Z,7.32
2023-06-11T05:42:40.588Z,7.20
2023-06-11T05:45:09.932Z,6.32
2023-06-11T05:47:38.704Z,7.47
2023-06-11T05:50:09.098Z,8.43
2023-06-11T05:52:37.391Z,7.95
2023-06-11T05:55:06.081Z,7.00
2023-06-11T05:57:34.441Z,6.10
2023-06-11T06:00:02.794Z,6.68
2023-06-11T06:02:31.980Z,7.10
2023-06-11T06:05:00.867Z,6.53
2023-06-11T06:07:30.720Z,5.82
2023-06-11T06:09:59.068Z,6.72
2023-06-11T06:12:27.382Z,7.97
2023-06-11T06:14:55.915Z,7.03
2023-06-11T06:17:24.503Z,5.18
2023-06-11T06:19:52.896Z,5.57
2023-06-11T06:22:21.204Z,5.35
2023-06-11T06:24:50.935Z,5.03
2023-06-11T06:27:19.328Z,6.82
2023-06-11T06:29:47.646Z,7.57
2023-06-11T06:32:16.012Z,6.30
2023-06-11T06:34:44.682Z,6.05
2023-06-11T06:37:13.004Z,8.57
2023-06-11T06:39:41.952Z,4.95
2023-06-11T06:42:11.776Z,4.47
2023-06-11T06:44:40.140Z,4.97
2023-06-11T06:47:09.005Z,5.60
2023-06-11T06:49:37.340Z,5.90
2023-06-11T06:52:05.911Z,5.47
2023-06-11T06:54:34.247Z,5.20
2023-06-11T06:57:02.621Z,5.43
2023-06-11T06:59:34.620Z,9.07
2023-06-11T07:02:02.942Z,6.65
2023-06-11T07:04:31.294Z,8.45
2023-06-11T07:06:59.593Z,6.45
2023-06-11T07:09:27.942Z,5.57
2023-06-11T07:11:56.261Z,6.15
2023-06-11T07:14:24.583Z,6.63
2023-06-11T07:16:54.315Z,6.70
2023-06-11T07:19:22.681Z,6.55
2023-06-11T07:21:50.982Z,6.25
2023-06-11T07:24:19.508Z,7.85
2023-06-11T07:26:47.973Z,5.88
2023-06-11T07:29:16.400Z,5.18
2023-06-11T07:31:44.814Z,5.78
2023-06-11T07:34:16.391Z,5.60
2023-06-11T07:36:44.759Z,8.95
2023-06-11T07:39:13.108Z,6.18
2023-06-11T07:41:41.485Z,4.95
2023-06-11T07:44:09.841Z,4.40
2023-06-11T07:46:38.277Z,5.03
2023-06-11T07:49:06.697Z,5.32
2023-06-11T07:51:37.119Z,4.70
2023-06-11T07:54:05.946Z,6.82
2023-06-11T07:56:34.326Z,5.30
2023-06-11T07:59:02.694Z,4.38
2023-06-11T08:01:31.116Z,4.70
2023-06-11T08:03:59.600Z,8.70
2023-06-11T08:06:27.973Z,6.53
2023-06-11T08:08:58.051Z,3.78
2023-06-11T08:11:26.462Z,3.83
2023-06-11T08:13:54.786Z,3.95
2023-06-11T08:16:23.395Z,5.60
2023-06-11T08:18:51.936Z,3.90
2023-06-11T08:21:20.283Z,5.55
2023-06-11T08:23:49.495Z,3.97
2023-06-11T08:26:21.043Z,4.40
2023-06-11T08:28:49.458Z,5.18
2023-06-11T08:31:17.784Z,5.35
2023-06-11T08:33:46.163Z,4.90
2023-06-11T08:36:14.515Z,4.53
2023-06-11T08:38:42.836Z,3.22
2023-06-11T08:41:11.296Z,3.97
2023-06-11T08:43:41.058Z,4.82
2023-06-11T08:46:13.384Z,4.82
2023-06-11T08:48:43.879Z,4.57
2023-06-11T08:51:12.903Z,6.50
2023-06-11T08:53:41.762Z,2.85
2023-06-11T08:56:10.154Z,7.35
2023-06-11T08:58:38.825Z,7.03
2023-06-11T09:01:12.325Z,3.15
2023-06-11T09:03:41.022Z,3.60
2023-06-11T09:06:09.599Z,2.65
2023-06-11T09:08:37.967Z,2.97
2023-06-11T09:11:07.604Z,4.97
2023-06-11T09:13:35.953Z,5.45
2023-06-11T09:16:04.402Z,3.85
2023-06-11T09:18:34.180Z,4.43
2023-06-11T09:21:02.782Z,3.30
2023-06-11T09:23:32.462Z,3.10
2023-06-11T09:26:01.466Z,4.82
2023-06-11T09:28:33.270Z,4.03
2023-06-11T09:31:02.873Z,4.90
2023-06-11T09:33:31.940Z,3.92
2023-06-11T09:36:01.812Z,4.57
2023-06-11T09:38:30.209Z,3.45
2023-06-11T09:40:59.182Z,3.53
2023-06-11T09:43:27.682Z,3.13
2023-06-11T09:45:57.114Z,4.43
2023-06-11T09:48:26.152Z,3.83
2023-06-11T09:50:55.147Z,3.95
2023-06-11T09:53:25.677Z,3.05
2023-06-11T09:56:09.297Z,5.05
2023-06-11T09:58:39.844Z,3.47
2023-06-11T10:01:08.643Z,5.82
2023-06-11T10:03:37.123Z,4.28
2023-06-11T10:06:07.338Z,3.63
2023-06-11T10:08:37.858Z,2.22
2023-06-11T10:11:06.633Z,3.42
2023-06-11T10:13:35.625Z,2.45
2023-06-11T10:16:04.131Z,2.42
2023-06-11T10:18:32.937Z,4.90
2023-06-11T10:21:02.285Z,3.72
2023-06-11T10:23:38.628Z,4.10
2023-06-11T10:26:07.456Z,3.67
2023-06-11T10:28:39.283Z,2.88
2023-06-11T10:31:07.774Z,3.10
2023-06-11T10:33:39.544Z,1.80
2023-06-11T10:36:08.249Z,2.60
2023-06-11T10:38:40.440Z,1.85
2023-06-11T10:41:08.798Z,2.20
2023-06-11T10:43:38.682Z,2.38
2023-06-11T10:46:13.163Z,2.58
2023-06-11T10:51:15.544Z,2.10
2023-06-11T10:53:45.262Z,2.10
2023-06-11T10:56:15.250Z,2.58
2023-06-11T10:58:43.675Z,1.65
2023-06-11T11:01:12.683Z,3.42
2023-06-11T11:03:41.202Z,2.90
2023-06-11T11:06:10.052Z,2.17
2023-06-11T11:08:38.395Z,2.65
2023-06-11T11:11:08.602Z,2.25
2023-06-11T11:13:37.308Z,2.25
2023-06-11T11:16:05.843Z,2.25
2023-06-11T11:18:35.920Z,2.53
2023-06-11T11:21:04.318Z,2.38
2023-06-11T11:23:34.101Z,4.60
2023-06-11T11:26:03.033Z,2.33
2023-06-11T11:28:35.713Z,2.47
2023-06-11T11:31:04.499Z,3.85
2023-06-11T11:33:32.928Z,3.70
2023-06-11T11:36:03.068Z,4.18
2023-06-11T11:38:35.777Z,3.15
2023-06-11T11:41:04.361Z,2.97
2023-06-11T11:43:39.969Z,2.65
2023-06-11T11:46:18.346Z,3.03
2023-06-11T11:48:46.898Z,2.20
2023-06-11T11:51:16.578Z,2.83
2023-06-11T11:53:45.266Z,4.20
2023-06-11T11:56:13.656Z,2.15
2023-06-11T11:58:44.574Z,4.00
2023-06-11T12:01:23.734Z,2.42
2023-06-11T12:03:59.503Z,4.03
2023-06-11T12:06:28.174Z,2.53
2023-06-11T12:08:56.596Z,3.63
2023-06-11T12:11:25.031Z,2.17
2023-06-11T12:13:54.790Z,2.45
2023-06-11T12:16:24.790Z,2.30
2023-06-11T12:18:57.064Z,2.85
2023-06-11T12:21:33.223Z,2.38
2023-06-11T12:24:01.645Z,2.92
2023-06-11T12:26:30.007Z,3.65
2023-06-11T12:29:01.271Z,4.05
2023-06-11T12:31:29.790Z,2.63
2023-06-11T12:33:58.572Z,2.63
2023-06-11T12:36:26.917Z,2.88
2023-06-11T12:38:55.414Z,2.47
2023-06-11T12:41:23.779Z,3.38
2023-06-11T12:43:52.158Z,3.03
2023-06-11T12:46:21.942Z,2.47
2023-06-11T12:48:50.319Z,2.45
2023-06-11T12:51:18.671Z,3.50
2023-06-11T12:53:47.067Z,4.05
2023-06-11T12:56:18.986Z,2.38
2023-06-11T12:58:47.599Z,2.90
2023-06-11T13:01:16.048Z,2.55
2023-06-11T13:03:45.791Z,2.80
2023-06-11T13:06:14.120Z,5.78
2023-06-11T13:08:42.456Z,2.95
2023-06-11T13:11:11.467Z,2.95
2023-06-11T13:13:39.962Z,3.72
2023-06-11T13:16:08.957Z,2.20
2023-06-11T13:18:37.415Z,2.78
2023-06-11T13:21:07.386Z,2.38
2023-06-11T13:23:36.122Z,2.88
2023-06-11T13:26:04.647Z,3.45
2023-06-11T13:28:33.006Z,2.60
2023-06-11T13:31:01.372Z,2.00
2023-06-11T13:33:30.206Z,2.17
2023-06-11T13:35:58.633Z,2.65
2023-06-11T13:38:28.360Z,2.17
2023-06-11T13:40:56.951Z,2.20
2023-06-11T13:43:25.361Z,3.53
2023-06-11T13:45:54.509Z,2.97
2023-06-11T13:48:24.015Z,2.65
2023-06-11T13:50:52.557Z,4.03
2023-06-11T13:53:21.518Z,3.05
2023-06-11T13:55:51.976Z,3.33
2023-06-11T13:58:22.009Z,2.90
2023-06-11T14:00:54.075Z,3.30
2023-06-11T14:03:23.042Z,1.88
2023-06-11T14:05:51.545Z,3.33
2023-06-11T14:08:19.879Z,2.55
2023-06-11T14:10:48.603Z,2.22
2023-06-11T14:13:18.410Z,2.22
2023-06-11T14:15:46.776Z,2.58
2023-06-11T14:18:15.146Z,3.05
2023-06-11T14:20:43.508Z,2.47
2023-06-11T14:23:11.918Z,2.97
2023-06-11T14:25:40.275Z,3.67
2023-06-11T14:28:08.683Z,2.13
2023-06-11T14:30:38.358Z,1.92
2023-06-11T14:33:06.831Z,2.70
2023-06-11T14:35:35.208Z,1.95
2023-06-11T14:38:04.513Z,2.50
2023-06-11T14:40:33.026Z,2.58
2023-06-11T14:43:01.411Z,1.67
2023-06-11T14:45:29.794Z,2.05
2023-06-11T14:47:59.545Z,2.28
2023-06-11T14:50:28.060Z,2.17
2023-06-11T14:52:56.419Z,2.67
2023-06-11T14:55:24.837Z,2.22
2023-06-11T14:57:53.237Z,2.88
2023-06-11T15:00:21.664Z,3.35
2023-06-11T15:02:50.073Z,1.83
2023-06-11T15:05:19.998Z,2.58
2023-06-11T15:07:48.603Z,2.33
2023-06-11T15:10:16.993Z,2.72
2023-06-11T15:12:45.370Z,2.45
2023-06-11T15:15:13.953Z,2.58
2023-06-11T15:17:42.398Z,1.90
2023-06-11T15:20:11.348Z,1.88
2023-06-11T15:22:41.845Z,2.30
2023-06-11T15:25:11.257Z,2.95
2023-06-11T15:27:40.897Z,2.00
2023-06-11T15:30:10.082Z,2.67
2023-06-11T15:32:38.698Z,2.90
2023-06-11T15:35:07.483Z,3.25
2023-06-11T15:37:36.327Z,1.92
2023-06-11T15:40:06.430Z,2.10
2023-06-11T15:42:35.835Z,3.13
2023-06-11T15:45:04.230Z,2.90
2023-06-11T15:47:32.640Z,3.28
2023-06-11T15:50:01.128Z,2.95
2023-06-11T15:52:29.586Z,2.00
2023-06-11T15:54:58.198Z,4.63
2023-06-11T15:57:27.975Z,3.08
2023-06-11T15:59:56.334Z,2.22
2023-06-11T16:02:25.277Z,2.17
2023-06-11T16:04:53.819Z,2.35
2023-06-11T16:07:22.186Z,2.58
2023-06-11T16:09:50.613Z,3.45
2023-06-11T16:12:18.944Z,2.38
2023-06-11T16:14:48.765Z,2.10
2023-06-11T16:17:17.226Z,2.80
2023-06-11T16:19:45.781Z,2.72
2023-06-11T16:22:14.196Z,4.07
2023-06-11T16:24:42.711Z,2.05
2023-06-11T16:27:11.049Z,2.25
2023-06-11T16:29:39.451Z,2.28
2023-06-11T16:32:12.291Z,2.40
2023-06-11T16:34:40.697Z,1.98
2023-06-11T16:37:09.240Z,3.55
2023-06-11T16:39:37.629Z,2.75
2023-06-11T16:42:06.617Z,2.90
2023-06-11T16:44:34.986Z,2.30
2023-06-11T16:47:03.576Z,4.43
2023-06-11T16:49:33.602Z,3.83
2023-06-11T16:52:04.415Z,2.80
2023-06-11T16:54:32.949Z,2.65
2023-06-11T16:57:01.841Z,3.33
2023-06-11T16:59:30.244Z,3.13
2023-06-11T17:01:58.622Z,2.92
2023-06-11T17:04:27.029Z,2.70
2023-06-11T17:06:57.924Z,4.22
2023-06-11T17:09:26.299Z,2.95
2023-06-11T17:11:54.712Z,2.55
2023-06-11T17:14:23.136Z,2.05
2023-06-11T17:16:51.553Z,2.22
2023-06-11T17:19:19.969Z,2.78
2023-06-11T17:21:49.809Z,3.13
2023-06-11T17:24:19.807Z,3.17
2023-06-11T17:26:48.276Z,2.80
2023-06-11T17:29:16.806Z,2.72
2023-06-11T17:31:45.229Z,4.07
2023-06-11T17:34:13.860Z,2.63
2023-06-11T17:36:43.050Z,3.50
2023-06-11T17:39:11.365Z,3.40
2023-06-11T17:41:41.063Z,4.65
2023-06-11T17:44:09.407Z,2.30
2023-06-11T17:46:37.843Z,2.42
2023-06-11T17:49:06.472Z,3.15
2023-06-11T17:51:34.893Z,3.53
2023-06-11T17:54:03.324Z,2.30
2023-06-11T17:56:31.769Z,5.60
2023-06-11T17:59:02.577Z,1.95
2023-06-11T18:01:31.076Z,3.53
2023-06-11T18:03:59.536Z,3.47
2023-06-11T18:06:28.707Z,2.95
2023-06-11T18:08:57.205Z,3.35
2023-06-11T18:11:25.794Z,3.00
2023-06-11T18:13:54.588Z,4.57
2023-06-11T18:16:24.846Z,3.25
2023-06-11T18:18:53.547Z,3.35
2023-06-11T18:21:22.041Z,2.30
2023-06-11T18:23:50.485Z,2.47
2023-06-11T18:26:19.032Z,3.05
2023-06-11T18:28:47.564Z,2.40
2023-06-11T18:31:16.035Z,4.72
2023-06-11T18:33:45.781Z,3.63
2023-06-11T18:36:14.126Z,2.60
2023-06-11T18:38:42.493Z,2.88
2023-06-11T18:41:10.899Z,3.08
2023-06-11T18:43:39.310Z,3.95
2023-06-11T18:46:07.657Z,2.65
2023-06-11T18:48:36.152Z,3.08
2023-06-11T18:51:06.202Z,3.42
2023-06-11T18:53:34.606Z,4.40
2023-06-11T18:56:02.969Z,2.47
2023-06-11T18:58:32.121Z,2.58
2023-06-11T19:01:00.692Z,2.97
2023-06-11T19:03:29.199Z,2.72
2023-06-11T19:05:57.648Z,3.10
2023-06-11T19:08:27.550Z,2.88
2023-06-11T19:10:55.878Z,4.72
2023-06-11T19:13:24.225Z,2.67
2023-06-11T19:15:54.947Z,4.55
2023-06-11T19:18:23.352Z,3.83
2023-06-11T19:20:52.726Z,3.17
2023-06-11T19:23:21.194Z,3.55
2023-06-11T19:25:52.158Z,2.70
2023-06-11T19:28:20.557Z,3.35
2023-06-11T19:30:49.053Z,2.53
2023-06-11T19:33:17.421Z,5.68
2023-06-11T19:35:45.814Z,4.00
2023-06-11T19:38:14.230Z,2.80
2023-06-11T19:40:42.569Z,2.83
2023-06-11T19:43:12.303Z,4.13
2023-06-11T19:45:40.715Z,4.28
2023-06-11T19:48:09.233Z,4.40
2023-06-11T19:50:37.610Z,4.53
2023-06-11T19:53:05.971Z,3.75
2023-06-11T19:55:34.338Z,4.07
2023-06-11T19:58:03.683Z,2.40
2023-06-11T20:00:33.443Z,4.10
2023-06-11T20:03:01.881Z,8.57
2023-06-11T20:05:30.810Z,3.58
2023-06-11T20:08:02.814Z,3.22
2023-06-11T20:10:36.899Z,5.55
2023-06-11T20:13:05.312Z,5.53
2023-06-11T20:15:35.009Z,3.10
2023-06-11T20:18:03.557Z,5.25
2023-06-11T20:20:31.957Z,3.42
2023-06-11T20:23:00.425Z,3.13
2023-06-11T20:25:29.828Z,2.55
2023-06-11T20:27:58.197Z,3.20
2023-06-11T20:30:26.795Z,4.30
2023-06-11T20:32:56.610Z,3.38
2023-06-11T20:35:25.714Z,2.58
2023-06-11T20:37:54.153Z,3.10
2023-06-11T20:40:22.569Z,4.80
2023-06-11T20:42:51.003Z,3.83
2023-06-11T20:45:19.321Z,4.35
2023-06-11T20:47:48.002Z,4.72
2023-06-11T20:50:17.774Z,2.92
2023-06-11T20:52:46.128Z,3.25
2023-06-11T20:55:14.470Z,3.70
2023-06-11T20:57:42.847Z,4.05
2023-06-11T21:00:12.163Z,3.95
2023-06-11T21:02:40.766Z,3.38
2023-06-11T21:05:09.425Z,2.80
2023-06-11T21:07:39.190Z,2.70
2023-06-11T21:10:08.156Z,3.92
2023-06-11T21:12:38.093Z,2.58
2023-06-11T21:15:06.961Z,4.70
2023-06-11T21:17:35.401Z,2.78
2023-06-11T21:20:04.701Z,2.83
2023-06-11T21:22:33.086Z,4.18
2023-06-11T21:25:02.829Z,3.10
2023-06-11T21:27:31.148Z,3.92
2023-06-11T21:29:59.574Z,3.47
2023-06-11T21:32:27.944Z,4.22
2023-06-11T21:34:56.310Z,2.58
2023-06-11T21:37:24.689Z,3.33
2023-06-11T21:39:53.066Z,3.58
2023-06-11T21:42:23.017Z,2.72
2023-06-11T21:44:51.426Z,3.08
2023-06-11T21:47:20.838Z,3.33
2023-06-11T21:49:49.230Z,4.90
2023-06-11T21:52:18.713Z,4.38
2023-06-11T21:54:47.322Z,2.72
2023-06-11T21:57:16.185Z,2.15
2023-06-11T21:59:46.077Z,3.42
2023-06-11T22:02:14.502Z,3.17
2023-06-11T22:04:43.193Z,5.00
2023-06-11T22:07:11.561Z,2.75
2023-06-11T22:09:41.380Z,3.25
2023-06-11T22:12:10.475Z,5.10
2023-06-11T22:14:38.834Z,4.43
2023-06-11T22:17:09.041Z,2.60
2023-06-11T22:19:39.849Z,3.00
2023-06-11T22:22:11.756Z,4.25
2023-06-11T22:24:40.798Z,3.65
2023-06-11T22:27:10.007Z,3.90
2023-06-11T22:29:38.361Z,4.43
2023-06-11T22:32:08.856Z,3.05
2023-06-11T22:34:37.270Z,4.38
2023-06-11T22:37:05.717Z,4.65
2023-06-11T22:39:34.113Z,5.45
2023-06-11T22:42:02.484Z,3.60
2023-06-11T22:44:30.856Z,4.47
2023-06-11T22:47:02.454Z,2.78
2023-06-11T22:49:34.041Z,3.95
2023-06-11T22:52:02.798Z,2.88
2023-06-11T22:54:31.134Z,4.20
2023-06-11T22:56:59.482Z,3.22
2023-06-11T22:59:27.869Z,4.53
2023-06-11T23:01:56.214Z,4.97
2023-06-11T23:04:24.616Z,3.40
2023-06-11T23:06:55.693Z,6.93
2023-06-11T23:09:24.379Z,5.20
2023-06-11T23:11:52.728Z,4.55
2023-06-11T23:14:21.085Z,4.55
2023-06-11T23:16:49.816Z,3.67
2023-06-11T23:19:23.734Z,3.72
2023-06-11T23:21:52.339Z,3.42
2023-06-11T23:24:23.060Z,3.88
2023-06-11T23:26:51.459Z,3.85
2023-06-11T23:29:19.813Z,3.38
2023-06-11T23:31:48.214Z,3.50
2023-06-11T23:34:16.658Z,4.45
2023-06-11T23:36:44.954Z,4.25
2023-06-11T23:39:13.297Z,4.63
2023-06-11T23:41:43.039Z,3.22
2023-06-11T23:44:11.359Z,5.10
2023-06-11T23:46:39.855Z,5.43
2023-06-11T23:49:08.251Z,4.32
2023-06-11T23:51:36.635Z,3.40
2023-06-11T23:54:04.993Z,4.50
2023-06-11T23:56:34.021Z,4.43
2023-06-11T23:59:03.761Z,2.92
